Preview of NWS' New Version of Forecast
This preview is not operational and should not be used for support decisions.

Terminal Aerodrome Forecast (TAF)

Issued by National Weather Service (NWS)

                            
522 
FTUS42 KKEY 210850 AAA
TAFMTH
TAF AMD
KMTH 210850Z 2109/2206 11011G20KT P6SM FEW020 SCT040
     FM211300 10013G20KT P6SM FEW020 SCT040=